Twentynine Palms (Self) Airport
KNXP : now visible

Airfield :











YOU CAN JOIN US ON...

 
LOGIN :

Register | Disclaimer

   EN    FR    IT 

 









Legend :    VFR   Marginal VFR   IFR   Intensive IFR   Very Intensive IFR
Visi :
Ceiling :
>= 8 km
>= 3000ft
5 to 8 km
1000 to 3000 ft
1500m to 5 km
500 to 1000 ft
800 to 1500m
200 to 500 ft
< 800m
< 200 ft
Symbols :   Thunderstorms  Fog  Heavy snow  Heavy precipitations  Wind > 20 kt






- Airport Elevation : 2051 ft


KNXP - Twentynine Palms (Self)

CURRENT METAR :
  • 280156Z AUTO 22015KT 10SM CLR 37/03 A2988 RMK AO2 SLP077 T03720028

EXPIRED METARs :
  • 280056Z AUTO 24012KT 10SM CLR 39/01 A2988 RMK AO2 SLP075 T03890006
  • 272356Z AUTO 22012G17KT 10SM CLR 40/00 A2988 RMK AO2 SLP076 T04000000 10417 20361 56016

TAF TAF KNXP
Valid from the 27 at 21:00 until the 28 at 21:00 UTC


2721/2821 VRB05KT 9999 SKC QNH2987INS
FM280030 24012KT 9999 SKC QNH2990INS
BECMG 2806/2808 VRB05KT 9999 SKC QNH2988INS T41/2722Z T25/2812Z
KZLA FIR / North America



MET'MAP, your aeronautical weather chart ! - Copyright ORBIFLY December 2007 - Disclaimer

ORBIFLY MET'MAP TEAM :

Programming & Development : Alexandra Zaïnal
Concept & original design : Baudouin d'Aumeries
Assistance for programming : Marc-Olivier Méhu
Technical & hardware support : Manuel Goepfert

Contact : metmap@orbifly.com




SOURCES & CREDITS :

   NOAA       Earth
Advisory